sensor_id;sensor_type;location;lat;lon;timestamp;pressure;altitude;pressure_sealevel;temperature;humidity
50933;BME280;36921;49.006;9.292;2023-04-01T00:02:02;97360.34;;;8.26;100.00
50933;BME280;36921;49.006;9.292;2023-04-01T00:04:27;97377.50;;;8.31;100.00
50933;BME280;36921;49.006;9.292;2023-04-01T00:06:53;97374.66;;;8.26;100.00
50933;BME280;36921;49.006;9.292;2023-04-01T00:09:18;97374.69;;;8.20;100.00
50933;BME280;36921;49.006;9.292;2023-04-01T00:11:43;97380.84;;;8.27;100.00
50933;BME280;36921;49.006;9.292;2023-04-01T00:14:10;97383.34;;;8.28;100.00
50933;BME280;36921;49.006;9.292;2023-04-01T00:16:36;97365.81;;;8.19;100.00
50933;BME280;36921;49.006;9.292;2023-04-01T00:19:01;97379.22;;;8.26;100.00
50933;BME280;36921;49.006;9.292;2023-04-01T00:21:27;97380.94;;;8.20;100.00
50933;BME280;36921;49.006;9.292;2023-04-01T00:23:52;97365.28;;;8.10;100.00
50933;BME280;36921;49.006;9.292;2023-04-01T00:26:18;97389.44;;;8.17;100.00
50933;BME280;36921;49.006;9.292;2023-04-01T00:28:46;97389.59;;;8.22;100.00
50933;BME280;36921;49.006;9.292;2023-04-01T00:31:12;97398.81;;;8.33;100.00
50933;BME280;36921;49.006;9.292;2023-04-01T00:33:38;97389.22;;;8.19;100.00
50933;BME280;36921;49.006;9.292;2023-04-01T00:36:06;97393.13;;;8.23;100.00
50933;BME280;36921;49.006;9.292;2023-04-01T00:38:31;97388.41;;;8.18;100.00
50933;BME280;36921;49.006;9.292;2023-04-01T00:40:57;97381.59;;;8.16;100.00
50933;BME280;36921;49.006;9.292;2023-04-01T00:43:23;97380.22;;;8.06;100.00
50933;BME280;36921;49.006;9.292;2023-04-01T00:45:49;97387.84;;;8.09;100.00
50933;BME280;36921;49.006;9.292;2023-04-01T00:48:18;97366.53;;;7.89;100.00
50933;BME280;36921;49.006;9.292;2023-04-01T00:50:50;97401.72;;;8.13;100.00
50933;BME280;36921;49.006;9.292;2023-04-01T00:53:18;97380.16;;;8.13;100.00
50933;BME280;36921;49.006;9.292;2023-04-01T00:55:50;97403.91;;;8.23;100.00
50933;BME280;36921;49.006;9.292;2023-04-01T00:58:18;97395.06;;;8.16;100.00
50933;BME280;36921;49.006;9.292;2023-04-01T01:00:47;97390.19;;;8.06;100.00
50933;BME280;36921;49.006;9.292;2023-04-01T01:03:14;97393.53;;;8.01;100.00
50933;BME280;36921;49.006;9.292;2023-04-01T01:11:04;97375.06;;;8.05;100.00
50933;BME280;36921;49.006;9.292;2023-04-01T01:13:36;97395.69;;;8.18;100.00
50933;BME280;36921;49.006;9.292;2023-04-01T01:16:29;97384.91;;;8.18;100.00
50933;BME280;36921;49.006;9.292;2023-04-01T01:19:07;97394.47;;;8.32;100.00
50933;BME280;36921;49.006;9.292;2023-04-01T01:21:50;97372.41;;;8.23;100.00
50933;BME280;36921;49.006;9.292;2023-04-01T01:26:55;97398.94;;;8.45;100.00
50933;BME280;36921;49.006;9.292;2023-04-01T01:32:24;97391.22;;;8.48;100.00
50933;BME280;36921;49.006;9.292;2023-04-01T01:37:40;97362.03;;;8.45;100.00
50933;BME280;36921;49.006;9.292;2023-04-01T01:40:08;97380.53;;;8.60;100.00
50933;BME280;36921;49.006;9.292;2023-04-01T01:42:38;97378.94;;;8.52;100.00
50933;BME280;36921;49.006;9.292;2023-04-01T01:45:06;97372.19;;;8.62;100.00
50933;BME280;36921;49.006;9.292;2023-04-01T01:47:34;97379.16;;;8.69;100.00
50933;BME280;36921;49.006;9.292;2023-04-01T01:50:01;97365.63;;;8.58;100.00
50933;BME280;36921;49.006;9.292;2023-04-01T01:52:29;97366.06;;;8.54;100.00
50933;BME280;36921;49.006;9.292;2023-04-01T01:54:56;97383.56;;;8.64;100.00
50933;BME280;36921;49.006;9.292;2023-04-01T01:57:25;97359.47;;;8.50;100.00
50933;BME280;36921;49.006;9.292;2023-04-01T01:59:53;97374.72;;;8.56;100.00
50933;BME280;36921;49.006;9.292;2023-04-01T02:02:20;97368.53;;;8.56;100.00
50933;BME280;36921;49.006;9.292;2023-04-01T02:04:46;97379.16;;;8.69;100.00
50933;BME280;36921;49.006;9.292;2023-04-01T02:07:18;97386.28;;;8.64;100.00
50933;BME280;36921;49.006;9.292;2023-04-01T02:09:45;97372.19;;;8.62;100.00
50933;BME280;36921;49.006;9.292;2023-04-01T02:12:14;97370.25;;;8.50;100.00
50933;BME280;36921;49.006;9.292;2023-04-01T02:17:20;97367.19;;;8.65;100.00
50933;BME280;36921;49.006;9.292;2023-04-01T02:19:56;97378.56;;;8.67;100.00
50933;BME280;36921;49.006;9.292;2023-04-01T02:22:24;97328.06;;;8.38;100.00
50933;BME280;36921;49.006;9.292;2023-04-01T02:24:53;97349.47;;;8.39;100.00
50933;BME280;36921;49.006;9.292;2023-04-01T02:27:21;97349.59;;;8.44;100.00
50933;BME280;36921;49.006;9.292;2023-04-01T02:29:47;97372.75;;;8.52;100.00
50933;BME280;36921;49.006;9.292;2023-04-01T02:32:13;97369.28;;;8.45;100.00
50933;BME280;36921;49.006;9.292;2023-04-01T02:34:40;97383.13;;;8.48;100.00
50933;BME280;36921;49.006;9.292;2023-04-01T02:37:06;97376.16;;;8.41;100.00
50933;BME280;36921;49.006;9.292;2023-04-01T02:39:31;97378.19;;;8.45;100.00
50933;BME280;36921;49.006;9.292;2023-04-01T02:41:56;97389.88;;;8.39;100.00
50933;BME280;36921;49.006;9.292;2023-04-01T02:44:22;97392.00;;;8.30;100.00
50933;BME280;36921;49.006;9.292;2023-04-01T02:46:47;97406.06;;;8.39;100.00
50933;BME280;36921;49.006;9.292;2023-04-01T02:49:12;97394.03;;;8.35;100.00
50933;BME280;36921;49.006;9.292;2023-04-01T02:51:38;97407.19;;;8.25;100.00
50933;BME280;36921;49.006;9.292;2023-04-01T02:54:03;97370.06;;;8.08;100.00
50933;BME280;36921;49.006;9.292;2023-04-01T02:56:28;97368.88;;;8.23;100.00
50933;BME280;36921;49.006;9.292;2023-04-01T02:58:54;97361.22;;;8.01;100.00
50933;BME280;36921;49.006;9.292;2023-04-01T03:01:20;97385.31;;;8.15;100.00
50933;BME280;36921;49.006;9.292;2023-04-01T03:03:45;97371.13;;;8.07;100.00
50933;BME280;36921;49.006;9.292;2023-04-01T03:06:13;97386.91;;;8.22;100.00
50933;BME280;36921;49.006;9.292;2023-04-01T03:08:38;97348.66;;;7.95;100.00
50933;BME280;36921;49.006;9.292;2023-04-01T03:11:05;97395.59;;;8.24;100.00
50933;BME280;36921;49.006;9.292;2023-04-01T03:13:31;97351.66;;;8.05;100.00
50933;BME280;36921;49.006;9.292;2023-04-01T03:15:56;97343.56;;;8.05;100.00
50933;BME280;36921;49.006;9.292;2023-04-01T03:18:21;97379.13;;;8.32;100.00
50933;BME280;36921;49.006;9.292;2023-04-01T03:20:47;97384.97;;;8.29;100.00
50933;BME280;36921;49.006;9.292;2023-04-01T03:23:12;97383.25;;;8.35;100.00
50933;BME280;36921;49.006;9.292;2023-04-01T03:25:38;97383.25;;;8.35;100.00
50933;BME280;36921;49.006;9.292;2023-04-01T03:28:03;97348.66;;;8.13;100.00
50933;BME280;36921;49.006;9.292;2023-04-01T03:30:29;97394.22;;;8.40;100.00
50933;BME280;36921;49.006;9.292;2023-04-01T03:32:56;97387.38;;;8.38;100.00
50933;BME280;36921;49.006;9.292;2023-04-01T03:35:22;97388.19;;;8.38;100.00
50933;BME280;36921;49.006;9.292;2023-04-01T03:37:47;97386.13;;;8.40;100.00
50933;BME280;36921;49.006;9.292;2023-04-01T03:40:13;97398.56;;;8.41;100.00
50933;BME280;36921;49.006;9.292;2023-04-01T03:42:38;97386.25;;;8.27;100.00
50933;BME280;36921;49.006;9.292;2023-04-01T03:45:04;97388.16;;;8.20;100.00
50933;BME280;36921;49.006;9.292;2023-04-01T03:47:30;97329.94;;;7.82;100.00
50933;BME280;36921;49.006;9.292;2023-04-01T03:49:55;97385.69;;;8.00;100.00
50933;BME280;36921;49.006;9.292;2023-04-01T03:52:20;97377.66;;;7.93;100.00
50933;BME280;36921;49.006;9.292;2023-04-01T03:54:46;97389.66;;;7.97;100.00
50933;BME280;36921;49.006;9.292;2023-04-01T03:57:11;97388.88;;;7.90;100.00
50933;BME280;36921;49.006;9.292;2023-04-01T03:59:37;97382.88;;;7.88;100.00
50933;BME280;36921;49.006;9.292;2023-04-01T04:02:02;97385.97;;;7.92;100.00
50933;BME280;36921;49.006;9.292;2023-04-01T04:04:28;97377.22;;;7.96;100.00
50933;BME280;36921;49.006;9.292;2023-04-01T04:06:53;97374.81;;;7.88;100.00
50933;BME280;36921;49.006;9.292;2023-04-01T04:09:19;97375.25;;;7.85;100.00
50933;BME280;36921;49.006;9.292;2023-04-01T04:11:44;97378.56;;;7.87;100.00
50933;BME280;36921;49.006;9.292;2023-04-01T04:14:09;97375.09;;;7.80;100.00
50933;BME280;36921;49.006;9.292;2023-04-01T04:16:35;97387.91;;;7.84;100.00
50933;BME280;36921;49.006;9.292;2023-04-01T04:19:04;97386.84;;;7.85;100.00
50933;BME280;36921;49.006;9.292;2023-04-01T04:21:29;97375.31;;;7.78;100.00
50933;BME280;36921;49.006;9.292;2023-04-01T04:23:55;97396.00;;;7.78;100.00
50933;BME280;36921;49.006;9.292;2023-04-01T04:26:20;97388.38;;;7.75;100.00
50933;BME280;36921;49.006;9.292;2023-04-01T04:28:45;97392.75;;;7.76;100.00
50933;BME280;36921;49.006;9.292;2023-04-01T04:31:11;97337.09;;;7.44;100.00
50933;BME280;36921;49.006;9.292;2023-04-01T04:33:36;97374.06;;;7.56;100.00
50933;BME280;36921;49.006;9.292;2023-04-01T04:36:03;97373.00;;;7.57;100.00
50933;BME280;36921;49.006;9.292;2023-04-01T04:38:28;97372.41;;;7.55;100.00
50933;BME280;36921;49.006;9.292;2023-04-01T04:40:54;97384.97;;;7.61;100.00
50933;BME280;36921;49.006;9.292;2023-04-01T04:43:20;97381.47;;;7.60;100.00
50933;BME280;36921;49.006;9.292;2023-04-01T04:45:46;97374.69;;;7.51;100.00
50933;BME280;36921;49.006;9.292;2023-04-01T04:48:13;97381.84;;;7.64;100.00
50933;BME280;36921;49.006;9.292;2023-04-01T04:50:43;97384.34;;;7.65;100.00
50933;BME280;36921;49.006;9.292;2023-04-01T04:53:10;97378.94;;;7.65;100.00
50933;BME280;36921;49.006;9.292;2023-04-01T04:55:36;97371.53;;;7.61;100.00
50933;BME280;36921;49.006;9.292;2023-04-01T04:58:01;97380.47;;;7.80;100.00
50933;BME280;36921;49.006;9.292;2023-04-01T05:00:27;97383.63;;;7.77;100.00
50933;BME280;36921;49.006;9.292;2023-04-01T05:02:53;97362.34;;;7.68;100.00
50933;BME280;36921;49.006;9.292;2023-04-01T05:05:18;97378.84;;;7.79;100.00
50933;BME280;36921;49.006;9.292;2023-04-01T05:07:43;97361.41;;;7.81;100.00
50933;BME280;36921;49.006;9.292;2023-04-01T05:10:09;97369.22;;;7.89;100.00
50933;BME280;36921;49.006;9.292;2023-04-01T05:12:35;97372.88;;;7.95;100.00
50933;BME280;36921;49.006;9.292;2023-04-01T05:15:06;97373.19;;;8.05;100.00
50933;BME280;36921;49.006;9.292;2023-04-01T05:17:31;97375.69;;;8.07;100.00
50933;BME280;36921;49.006;9.292;2023-04-01T05:19:57;97371.69;;;8.09;100.00
50933;BME280;36921;49.006;9.292;2023-04-01T05:22:23;97365.34;;;8.04;100.00
50933;BME280;36921;49.006;9.292;2023-04-01T05:24:48;97351.03;;;8.03;100.00
50933;BME280;36921;49.006;9.292;2023-04-01T05:27:15;97347.91;;;8.06;100.00
50933;BME280;36921;49.006;9.292;2023-04-01T05:29:40;97350.75;;;8.11;100.00
50933;BME280;36921;49.006;9.292;2023-04-01T05:32:06;97360.19;;;8.21;100.00
50933;BME280;36921;49.006;9.292;2023-04-01T05:34:31;97344.75;;;8.09;100.00
50933;BME280;36921;49.006;9.292;2023-04-01T05:36:56;97350.16;;;8.09;100.00
50933;BME280;36921;49.006;9.292;2023-04-01T05:39:22;97371.03;;;8.14;100.00
50933;BME280;36921;49.006;9.292;2023-04-01T05:41:48;97369.59;;;8.11;100.00
50933;BME280;36921;49.006;9.292;2023-04-01T05:44:13;97357.41;;;8.09;100.00
50933;BME280;36921;49.006;9.292;2023-04-01T05:46:39;97344.63;;;8.04;100.00
50933;BME280;36921;49.006;9.292;2023-04-01T05:49:04;97348.28;;;8.10;100.00
50933;BME280;36921;49.006;9.292;2023-04-01T05:51:29;97352.56;;;8.18;100.00
50933;BME280;36921;49.006;9.292;2023-04-01T05:53:54;97330.25;;;7.92;100.00
50933;BME280;36921;49.006;9.292;2023-04-01T05:56:20;97332.94;;;8.10;100.00
50933;BME280;36921;49.006;9.292;2023-04-01T05:58:50;97334.22;;;8.08;100.00
50933;BME280;36921;49.006;9.292;2023-04-01T06:01:16;97334.84;;;8.10;100.00
50933;BME280;36921;49.006;9.292;2023-04-01T06:03:41;97347.91;;;8.06;100.00
50933;BME280;36921;49.006;9.292;2023-04-01T06:06:15;97340.88;;;8.05;100.00
50933;BME280;36921;49.006;9.292;2023-04-01T06:08:41;97352.25;;;8.07;100.00
50933;BME280;36921;49.006;9.292;2023-04-01T06:16:49;97353.59;;;8.17;100.00
50933;BME280;36921;49.006;9.292;2023-04-01T06:35:54;97348.41;;;8.40;100.00
50933;BME280;36921;49.006;9.292;2023-04-01T06:38:34;97349.97;;;8.48;100.00
50933;BME280;36921;49.006;9.292;2023-04-01T06:44:28;97336.94;;;8.63;100.00
50933;BME280;36921;49.006;9.292;2023-04-01T06:47:17;97334.88;;;8.77;100.00
50933;BME280;36921;49.006;9.292;2023-04-01T06:53:00;97342.56;;;8.92;100.00
50933;BME280;36921;49.006;9.292;2023-04-01T06:55:47;97345.72;;;8.89;100.00
50933;BME280;36921;49.006;9.292;2023-04-01T06:58:20;97348.03;;;8.85;100.00
50933;BME280;36921;49.006;9.292;2023-04-01T07:00:49;97347.00;;;8.86;100.00
50933;BME280;36921;49.006;9.292;2023-04-01T07:06:56;97312.97;;;8.55;100.00
50933;BME280;36921;49.006;9.292;2023-04-01T07:09:32;97358.16;;;8.90;100.00
50933;BME280;36921;49.006;9.292;2023-04-01T07:12:09;97345.63;;;8.95;100.00
50933;BME280;36921;49.006;9.292;2023-04-01T07:14:39;97348.44;;;9.00;100.00
50933;BME280;36921;49.006;9.292;2023-04-01T07:17:20;97350.56;;;8.98;100.00
50933;BME280;36921;49.006;9.292;2023-04-01T07:22:39;97340.50;;;9.06;100.00
50933;BME280;36921;49.006;9.292;2023-04-01T07:25:12;97353.56;;;9.20;100.00
50933;BME280;36921;49.006;9.292;2023-04-01T07:27:38;97339.53;;;9.30;100.00
50933;BME280;36921;49.006;9.292;2023-04-01T07:30:13;97343.50;;;9.28;100.00
50933;BME280;36921;49.006;9.292;2023-04-01T07:32:47;97355.00;;;9.23;100.00
50933;BME280;36921;49.006;9.292;2023-04-01T07:35:31;97362.75;;;9.31;100.00
50933;BME280;36921;49.006;9.292;2023-04-01T07:38:27;97369.34;;;9.35;100.00
50933;BME280;36921;49.006;9.292;2023-04-01T07:46:24;97375.50;;;9.66;100.00
50933;BME280;36921;49.006;9.292;2023-04-01T07:49:09;97373.75;;;9.60;100.00
50933;BME280;36921;49.006;9.292;2023-04-01T07:51:56;97362.47;;;9.63;100.00
50933;BME280;36921;49.006;9.292;2023-04-01T07:54:43;97368.59;;;9.70;100.00
50933;BME280;36921;49.006;9.292;2023-04-01T08:03:20;97368.59;;;9.94;100.00
50933;BME280;36921;49.006;9.292;2023-04-01T08:08:28;97362.59;;;9.56;100.00
50933;BME280;36921;49.006;9.292;2023-04-01T08:14:31;97368.59;;;9.70;100.00
50933;BME280;36921;49.006;9.292;2023-04-01T08:17:09;97371.88;;;9.72;100.00
50933;BME280;36921;49.006;9.292;2023-04-01T08:22:44;97373.38;;;9.56;100.00
50933;BME280;36921;49.006;9.292;2023-04-01T08:25:22;97372.44;;;9.62;100.00
50933;BME280;36921;49.006;9.292;2023-04-01T08:33:29;97390.16;;;9.58;100.00
50933;BME280;36921;49.006;9.292;2023-04-01T08:36:15;97377.66;;;9.34;100.00
50933;BME280;36921;49.006;9.292;2023-04-01T08:38:54;97390.41;;;9.15;100.00
50933;BME280;36921;49.006;9.292;2023-04-01T08:41:57;97396.50;;;8.92;100.00
50933;BME280;36921;49.006;9.292;2023-04-01T08:52:59;97401.56;;;8.70;100.00
50933;BME280;36921;49.006;9.292;2023-04-01T08:55:40;97415.78;;;8.77;100.00
50933;BME280;36921;49.006;9.292;2023-04-01T09:06:31;97407.84;;;8.45;100.00
50933;BME280;36921;49.006;9.292;2023-04-01T09:09:14;97398.16;;;8.38;100.00
50933;BME280;36921;49.006;9.292;2023-04-01T09:14:26;97392.66;;;8.07;100.00
50933;BME280;36921;49.006;9.292;2023-04-01T09:22:54;97399.19;;;8.18;100.00
50933;BME280;36921;49.006;9.292;2023-04-01T09:28:20;97420.56;;;8.56;100.00
50933;BME280;36921;49.006;9.292;2023-04-01T09:31:14;97402.09;;;8.60;100.00
50933;BME280;36921;49.006;9.292;2023-04-01T09:44:52;97426.53;;;8.95;100.00
50933;BME280;36921;49.006;9.292;2023-04-01T09:55:49;97423.94;;;8.89;100.00
50933;BME280;36921;49.006;9.292;2023-04-01T10:07:06;97401.84;;;8.80;100.00
50933;BME280;36921;49.006;9.292;2023-04-01T10:13:00;97424.91;;;8.94;100.00
50933;BME280;36921;49.006;9.292;2023-04-01T10:29:08;97417.00;;;9.11;100.00
50933;BME280;36921;49.006;9.292;2023-04-01T10:40:23;97421.31;;;8.82;100.00
50933;BME280;36921;49.006;9.292;2023-04-01T10:43:19;97427.38;;;8.77;100.00
50933;BME280;36921;49.006;9.292;2023-04-01T10:49:10;97407.31;;;8.92;100.00
50933;BME280;36921;49.006;9.292;2023-04-01T11:00:22;97411.47;;;9.06;100.00
50933;BME280;36921;49.006;9.292;2023-04-01T11:11:09;97402.25;;;8.95;100.00
50933;BME280;36921;49.006;9.292;2023-04-01T11:25:29;97402.00;;;9.15;100.00
50933;BME280;36921;49.006;9.292;2023-04-01T11:28:15;97413.25;;;9.12;100.00
50933;BME280;36921;49.006;9.292;2023-04-01T11:33:39;97427.34;;;9.14;100.00
50933;BME280;36921;49.006;9.292;2023-04-01T11:44:27;97437.94;;;9.58;100.00
50933;BME280;36921;49.006;9.292;2023-04-01T11:49:47;97440.56;;;9.64;100.00
50933;BME280;36921;49.006;9.292;2023-04-01T11:52:33;97430.69;;;9.70;100.00
50933;BME280;36921;49.006;9.292;2023-04-01T11:55:23;97425.31;;;9.82;100.00
50933;BME280;36921;49.006;9.292;2023-04-01T12:11:17;97449.88;;;9.80;100.00
50933;BME280;36921;49.006;9.292;2023-04-01T12:13:59;97439.97;;;9.74;100.00
50933;BME280;36921;49.006;9.292;2023-04-01T12:19:54;97450.03;;;10.09;100.00
50933;BME280;36921;49.006;9.292;2023-04-01T12:25:33;97458.94;;;9.98;100.00
50933;BME280;36921;49.006;9.292;2023-04-01T12:28:10;97453.78;;;10.08;100.00
50933;BME280;36921;49.006;9.292;2023-04-01T12:30:53;97444.63;;;10.09;100.00
50933;BME280;36921;49.006;9.292;2023-04-01T12:36:19;97467.53;;;10.06;100.00
50933;BME280;36921;49.006;9.292;2023-04-01T12:47:19;97448.88;;;10.28;100.00
50933;BME280;36921;49.006;9.292;2023-04-01T13:03:48;97476.22;;;9.97;100.00
50933;BME280;36921;49.006;9.292;2023-04-01T13:06:49;97476.75;;;9.87;100.00
50933;BME280;36921;49.006;9.292;2023-04-01T13:17:39;97482.97;;;9.87;100.00
50933;BME280;36921;49.006;9.292;2023-04-01T13:25:15;97499.84;;;10.01;100.00
50933;BME280;36921;49.006;9.292;2023-04-01T13:27:51;97490.88;;;9.89;100.00
50933;BME280;36921;49.006;9.292;2023-04-01T13:30:44;97494.53;;;9.95;100.00
50933;BME280;36921;49.006;9.292;2023-04-01T13:33:20;97504.03;;;9.85;100.00
50933;BME280;36921;49.006;9.292;2023-04-01T13:35:59;97500.84;;;9.88;100.00
50933;BME280;36921;49.006;9.292;2023-04-01T13:43:42;97514.59;;;9.57;100.00
50933;BME280;36921;49.006;9.292;2023-04-01T13:46:41;97522.47;;;9.58;100.00
50933;BME280;36921;49.006;9.292;2023-04-01T13:52:12;97517.91;;;9.59;100.00
50933;BME280;36921;49.006;9.292;2023-04-01T14:00:16;97527.63;;;9.90;100.00
50933;BME280;36921;49.006;9.292;2023-04-01T14:17:39;97528.34;;;9.85;100.00
50933;BME280;36921;49.006;9.292;2023-04-01T14:26:22;97536.16;;;10.17;100.00
50933;BME280;36921;49.006;9.292;2023-04-01T14:40:18;97520.81;;;9.87;100.00
50933;BME280;36921;49.006;9.292;2023-04-01T14:43:47;97541.97;;;9.91;100.00
50933;BME280;36921;49.006;9.292;2023-04-01T14:46:02;97538.25;;;10.03;100.00
50933;BME280;36921;49.006;9.292;2023-04-01T14:51:20;97531.06;;;9.97;100.00
50933;BME280;36921;49.006;9.292;2023-04-01T14:53:59;97538.69;;;10.00;100.00
50933;BME280;36921;49.006;9.292;2023-04-01T14:57:05;97541.50;;;9.94;100.00
50933;BME280;36921;49.006;9.292;2023-04-01T14:59:34;97539.41;;;9.96;100.00
50933;BME280;36921;49.006;9.292;2023-04-01T15:24:35;97558.53;;;9.94;100.00
50933;BME280;36921;49.006;9.292;2023-04-01T15:38:06;97556.78;;;10.00;100.00
50933;BME280;36921;49.006;9.292;2023-04-01T15:43:15;97568.88;;;9.97;100.00
50933;BME280;36921;49.006;9.292;2023-04-01T15:45:58;97567.31;;;9.90;100.00
50933;BME280;36921;49.006;9.292;2023-04-01T16:02:42;97569.19;;;9.77;100.00
50933;BME280;36921;49.006;9.292;2023-04-01T16:10:50;97582.53;;;9.72;100.00
50933;BME280;36921;49.006;9.292;2023-04-01T16:13:46;97591.00;;;9.76;100.00
50933;BME280;36921;49.006;9.292;2023-04-01T16:19:11;97593.03;;;9.80;100.00
50933;BME280;36921;49.006;9.292;2023-04-01T16:21:48;97586.56;;;9.81;100.00
50933;BME280;36921;49.006;9.292;2023-04-01T16:27:06;97596.09;;;9.84;100.00
50933;BME280;36921;49.006;9.292;2023-04-01T16:29:45;97595.88;;;9.85;100.00
50933;BME280;36921;49.006;9.292;2023-04-01T16:37:53;97603.06;;;9.92;100.00
50933;BME280;36921;49.006;9.292;2023-04-01T16:42:52;97608.09;;;9.88;100.00
50933;BME280;36921;49.006;9.292;2023-04-01T16:45:24;97594.34;;;9.90;100.00
50933;BME280;36921;49.006;9.292;2023-04-01T16:48:07;97593.97;;;9.86;100.00
50933;BME280;36921;49.006;9.292;2023-04-01T16:51:16;97599.13;;;9.87;100.00
50933;BME280;36921;49.006;9.292;2023-04-01T16:53:47;97606.22;;;9.88;100.00
50933;BME280;36921;49.006;9.292;2023-04-01T16:56:20;97604.47;;;9.94;100.00
50933;BME280;36921;49.006;9.292;2023-04-01T17:01:40;97607.25;;;9.87;100.00
50933;BME280;36921;49.006;9.292;2023-04-01T17:06:54;97602.75;;;9.81;100.00
50933;BME280;36921;49.006;9.292;2023-04-01T17:12:10;97620.72;;;9.76;100.00
50933;BME280;36921;49.006;9.292;2023-04-01T17:17:36;97619.91;;;9.75;100.00
50933;BME280;36921;49.006;9.292;2023-04-01T17:20:06;97625.06;;;9.77;100.00
50933;BME280;36921;49.006;9.292;2023-04-01T17:22:52;97618.69;;;9.71;100.00
50933;BME280;36921;49.006;9.292;2023-04-01T17:30:38;97622.06;;;9.66;100.00
50933;BME280;36921;49.006;9.292;2023-04-01T17:35:58;97636.16;;;9.69;100.00
50933;BME280;36921;49.006;9.292;2023-04-01T17:41:48;97658.00;;;9.67;100.00
50933;BME280;36921;49.006;9.292;2023-04-01T17:47:23;97664.16;;;9.56;100.00
50933;BME280;36921;49.006;9.292;2023-04-01T17:52:33;97676.81;;;9.55;100.00
50933;BME280;36921;49.006;9.292;2023-04-01T17:55:25;97673.31;;;9.55;100.00
50933;BME280;36921;49.006;9.292;2023-04-01T17:58:17;97670.00;;;9.53;100.00
50933;BME280;36921;49.006;9.292;2023-04-01T18:06:14;97684.56;;;9.52;100.00
50933;BME280;36921;49.006;9.292;2023-04-01T18:22:23;97705.56;;;9.25;100.00
50933;BME280;36921;49.006;9.292;2023-04-01T18:25:19;97706.03;;;9.21;100.00
50933;BME280;36921;49.006;9.292;2023-04-01T18:27:45;97717.06;;;9.20;100.00
50933;BME280;36921;49.006;9.292;2023-04-01T18:35:27;97718.78;;;9.14;100.00
50933;BME280;36921;49.006;9.292;2023-04-01T18:38:03;97717.19;;;9.07;100.00
50933;BME280;36921;49.006;9.292;2023-04-01T18:40:35;97722.59;;;9.00;100.00
50933;BME280;36921;49.006;9.292;2023-04-01T18:43:14;97718.03;;;9.00;100.00
50933;BME280;36921;49.006;9.292;2023-04-01T18:45:50;97726.13;;;9.00;100.00
50933;BME280;36921;49.006;9.292;2023-04-01T18:53:59;97738.16;;;9.05;100.00
50933;BME280;36921;49.006;9.292;2023-04-01T18:56:33;97750.19;;;9.02;100.00
50933;BME280;36921;49.006;9.292;2023-04-01T19:01:49;97750.22;;;8.95;100.00
50933;BME280;36921;49.006;9.292;2023-04-01T19:04:23;97755.63;;;8.95;100.00
50933;BME280;36921;49.006;9.292;2023-04-01T19:06:59;97756.06;;;8.92;100.00
50933;BME280;36921;49.006;9.292;2023-04-01T19:12:38;97757.59;;;8.82;100.00
50933;BME280;36921;49.006;9.292;2023-04-01T19:15:23;97762.63;;;8.78;100.00
50933;BME280;36921;49.006;9.292;2023-04-01T19:17:58;97762.03;;;8.69;100.00
50933;BME280;36921;49.006;9.292;2023-04-01T19:20:47;97763.91;;;8.69;100.00
50933;BME280;36921;49.006;9.292;2023-04-01T19:29:41;97763.72;;;8.64;100.00
50933;BME280;36921;49.006;9.292;2023-04-01T19:35:58;97767.28;;;8.58;100.00
50933;BME280;36921;49.006;9.292;2023-04-01T19:38:04;97757.97;;;8.53;100.00
50933;BME280;36921;49.006;9.292;2023-04-01T19:40:37;97781.22;;;8.54;100.00
50933;BME280;36921;49.006;9.292;2023-04-01T19:51:21;97778.63;;;8.28;100.00
50933;BME280;36921;49.006;9.292;2023-04-01T20:02:34;97799.78;;;8.18;100.00
50933;BME280;36921;49.006;9.292;2023-04-01T20:07:56;97803.28;;;8.25;100.00
50933;BME280;36921;49.006;9.292;2023-04-01T20:10:32;97808.66;;;8.25;100.00
50933;BME280;36921;49.006;9.292;2023-04-01T20:13:13;97810.34;;;8.26;100.00
50933;BME280;36921;49.006;9.292;2023-04-01T20:15:46;97820.06;;;8.33;100.00
50933;BME280;36921;49.006;9.292;2023-04-01T20:18:23;97809.28;;;8.33;100.00
50933;BME280;36921;49.006;9.292;2023-04-01T20:20:54;97821.72;;;8.28;100.00
50933;BME280;36921;49.006;9.292;2023-04-01T20:23:39;97814.91;;;8.25;100.00
50933;BME280;36921;49.006;9.292;2023-04-01T20:26:09;97818.84;;;8.23;100.00
50933;BME280;36921;49.006;9.292;2023-04-01T20:31:16;97824.00;;;8.24;100.00
50933;BME280;36921;49.006;9.292;2023-04-01T20:39:24;97833.38;;;8.15;100.00
50933;BME280;36921;49.006;9.292;2023-04-01T20:42:21;97828.00;;;8.08;100.00
50933;BME280;36921;49.006;9.292;2023-04-01T20:47:49;97842.28;;;8.16;100.00
50933;BME280;36921;49.006;9.292;2023-04-01T20:53:21;97834.41;;;8.14;100.00
50933;BME280;36921;49.006;9.292;2023-04-01T20:59:07;97846.41;;;8.11;100.00
50933;BME280;36921;49.006;9.292;2023-04-01T21:04:41;97850.78;;;8.12;100.00
50933;BME280;36921;49.006;9.292;2023-04-01T21:15:39;97869.88;;;8.04;100.00
50933;BME280;36921;49.006;9.292;2023-04-01T21:18:39;97871.31;;;8.07;100.00
50933;BME280;36921;49.006;9.292;2023-04-01T21:21:37;97871.50;;;7.99;100.00
50933;BME280;36921;49.006;9.292;2023-04-01T21:29:25;97863.44;;;7.99;100.00
50933;BME280;36921;49.006;9.292;2023-04-01T21:35:23;97888.72;;;8.04;100.00
50933;BME280;36921;49.006;9.292;2023-04-01T21:40:56;97893.50;;;8.02;100.00
50933;BME280;36921;49.006;9.292;2023-04-01T21:55:22;97895.34;;;8.08;100.00
50933;BME280;36921;49.006;9.292;2023-04-01T22:06:42;97907.75;;;8.09;100.00
50933;BME280;36921;49.006;9.292;2023-04-01T22:09:25;97898.47;;;8.05;100.00
50933;BME280;36921;49.006;9.292;2023-04-01T22:12:03;97889.75;;;8.10;100.00
50933;BME280;36921;49.006;9.292;2023-04-01T22:14:38;97893.69;;;8.07;100.00
50933;BME280;36921;49.006;9.292;2023-04-01T22:17:19;97911.91;;;8.19;100.00
50933;BME280;36921;49.006;9.292;2023-04-01T22:22:26;97915.63;;;8.24;100.00
50933;BME280;36921;49.006;9.292;2023-04-01T22:25:15;97903.19;;;8.23;100.00
50933;BME280;36921;49.006;9.292;2023-04-01T22:27:55;97903.41;;;8.22;100.00